Time;durP1;ratioP1;P1;durP2;ratioP2;P2;SDS_P1;SDS_P2;PMS_P1;PMS_P2;Temp;Humidity;BMP_temperature;BMP_pressure;BME280_temperature;BME280_humidity;BME280_pressure;Samples;Min_cycle;Max_cycle;Signal;HPM_P1;HPM_P2
2024/01/05 00:01:32;;;;;;;10.97;5.60;;;;;;;6.99;100.00;63666.81;5072076;28;20195;-54
2024/01/05 00:03:58;;;;;;;9.87;6.20;;;;;;;6.67;100.00;63629.97;5074510;28;20272;-55
2024/01/05 00:06:23;;;;;;;15.23;6.30;;;;;;;6.78;100.00;63643.94;5074106;28;20737;-55
2024/01/05 00:08:49;;;;;;;8.43;4.80;;;;;;;7.01;100.00;63666.50;5074186;28;20223;-55
2024/01/05 00:11:19;;;;;;;8.93;5.70;;;;;;;7.00;100.00;63662.34;5055684;28;20193;-56
2024/01/05 00:13:48;;;;;;;7.00;4.90;;;;;;;7.15;100.00;63681.22;5074106;28;20205;-56
2024/01/05 00:16:20;;;;;;;7.10;5.17;;;;;;;7.00;100.00;63664.84;5055735;28;20196;-55
2024/01/05 00:18:46;;;;;;;7.03;4.33;;;;;;;6.97;100.00;63662.13;5073630;28;20682;-55
2024/01/05 00:21:38;;;;;;;7.47;4.47;;;;;;;6.90;100.00;63657.00;5073698;28;20192;-55
2024/01/05 00:24:05;;;;;;;6.90;4.50;;;;;;;6.88;100.00;63654.81;5069298;28;20220;-55
2024/01/05 00:26:30;;;;;;;6.97;4.87;;;;;;;6.86;100.00;63649.59;5073609;28;20188;-55
2024/01/05 00:28:56;;;;;;;8.00;4.90;;;;;;;6.90;100.00;63651.44;5074147;28;20193;-55
2024/01/05 00:31:21;;;;;;;5.50;4.30;;;;;;;6.89;100.00;63655.38;5055535;28;20329;-55
2024/01/05 00:33:47;;;;;;;6.67;4.40;;;;;;;6.84;100.00;63650.47;5073697;28;20283;-55
2024/01/05 00:36:13;;;;;;;5.40;3.93;;;;;;;6.84;100.00;63647.97;5073591;28;20172;-54
2024/01/05 00:38:41;;;;;;;5.60;4.40;;;;;;;6.77;100.00;63640.88;5073701;28;20299;-54
2024/01/05 00:41:07;;;;;;;5.20;4.13;;;;;;;6.87;100.00;63653.19;5073486;28;20177;-55
2024/01/05 00:43:33;;;;;;;5.27;4.27;;;;;;;6.65;100.00;63627.78;5055603;28;20220;-55
2024/01/05 00:45:58;;;;;;;6.30;4.77;;;;;;;6.58;100.00;63624.63;5073328;28;20199;-54
2024/01/05 00:48:24;;;;;;;9.33;4.90;;;;;;;6.64;100.00;63626.16;5073077;28;20217;-55
2024/01/05 00:50:49;;;;;;;6.90;4.50;;;;;;;6.72;100.00;63635.44;5073272;28;20692;-55
2024/01/05 00:53:15;;;;;;;5.83;3.80;;;;;;;6.77;100.00;63643.38;5055444;28;20224;-58
2024/01/05 00:55:40;;;;;;;6.73;4.67;;;;;;;6.61;100.00;63625.38;5073122;28;20189;-54
2024/01/05 00:58:06;;;;;;;5.83;4.00;;;;;;;6.77;100.00;63643.38;5080407;22;20241;-56
2024/01/05 01:00:32;;;;;;;5.23;3.97;;;;;;;6.68;100.00;63633.03;5073193;28;20216;-57
2024/01/05 01:02:57;;;;;;;6.67;3.90;;;;;;;6.60;100.00;63621.78;5055016;28;20217;-56
2024/01/05 01:05:23;;;;;;;8.27;4.13;;;;;;;6.63;100.00;63627.56;5073099;28;20180;-55
2024/01/05 01:07:48;;;;;;;8.77;5.63;;;;;;;6.59;100.00;63621.25;5073037;28;20209;-53
2024/01/05 01:10:15;;;;;;;5.30;3.67;;;;;;;6.61;100.00;63625.94;5073189;28;20635;-53
2024/01/05 01:12:41;;;;;;;5.77;4.27;;;;;;;6.63;100.00;63628.09;5072936;28;20208;-54
2024/01/05 01:15:07;;;;;;;5.17;3.60;;;;;;;6.79;100.00;63645.00;5055295;28;20311;-62
2024/01/05 01:17:33;;;;;;;4.73;3.67;;;;;;;6.63;100.00;63625.59;5072799;28;20296;-57
2024/01/05 01:19:58;;;;;;;6.97;4.60;;;;;;;6.47;100.00;63610.66;5072882;28;20268;-56
2024/01/05 01:22:24;;;;;;;8.27;4.00;;;;;;;6.60;100.00;63624.84;5073032;28;20727;-55
2024/01/05 01:24:50;;;;;;;6.87;3.53;;;;;;;6.63;100.00;63628.09;5054996;28;20193;-55
2024/01/05 01:27:16;;;;;;;5.37;3.83;;;;;;;6.53;100.00;63617.22;5072767;28;20220;-55
2024/01/05 01:29:42;;;;;;;6.20;5.10;;;;;;;6.52;100.00;63615.59;5072874;28;20184;-56
2024/01/05 01:32:09;;;;;;;6.10;4.53;;;;;;;6.63;100.00;63625.59;5072621;28;20209;-55
2024/01/05 01:34:35;;;;;;;8.20;5.40;;;;;;;6.81;100.00;63644.69;5072564;28;20181;-55
2024/01/05 01:37:02;;;;;;;6.50;3.93;;;;;;;6.67;100.00;63626.91;5072749;28;20695;-57
2024/01/05 01:39:28;;;;;;;6.93;4.97;;;;;;;6.72;100.00;63640.44;5072541;28;20209;-53
2024/01/05 01:41:54;;;;;;;8.07;5.03;;;;;;;6.75;100.00;63638.69;5072658;28;20262;-60
2024/01/05 01:44:19;;;;;;;6.83;4.97;;;;;;;6.65;100.00;63627.78;5054788;28;20260;-55
2024/01/05 01:46:45;;;;;;;8.70;5.00;;;;;;;6.59;100.00;63623.19;5072632;28;20212;-53
2024/01/05 01:49:10;;;;;;;8.13;5.67;;;;;;;6.52;100.00;63616.13;5072400;28;20689;-53
2024/01/05 01:51:36;;;;;;;9.37;5.93;;;;;;;6.51;100.00;63614.47;5072325;28;20271;-53
2024/01/05 01:54:08;;;;;;;7.23;4.83;;;;;;;6.45;100.00;63607.94;5072456;28;20184;-54
2024/01/05 01:56:35;;;;;;;8.37;5.80;;;;;;;6.43;100.00;63606.31;5072305;28;20220;-55
2024/01/05 01:59:02;;;;;;;7.53;5.13;;;;;;;6.45;100.00;63606.00;5072071;28;20233;-55
2024/01/05 02:01:28;;;;;;;6.53;5.27;;;;;;;6.40;100.00;63602.50;5072409;28;20189;-55
2024/01/05 02:03:54;;;;;;;12.47;5.30;;;;;;;6.36;100.00;63598.16;5072247;28;20203;-56
2024/01/05 02:06:20;;;;;;;9.37;5.77;;;;;;;6.36;100.00;63598.66;5072249;28;20650;-56
2024/01/05 02:08:47;;;;;;;8.03;5.67;;;;;;;6.25;100.00;63586.69;5053976;28;20207;-57
2024/01/05 02:11:16;;;;;;;8.63;5.17;;;;;;;6.36;100.00;63598.66;5071864;28;20215;-54
2024/01/05 02:13:42;;;;;;;6.97;5.53;;;;;;;6.20;100.00;63578.72;5071906;28;20217;-59
2024/01/05 02:16:08;;;;;;;7.23;5.27;;;;;;;6.21;100.00;63584.28;5072005;28;20199;-57
2024/01/05 02:18:33;;;;;;;9.03;5.47;;;;;;;6.08;100.00;63568.16;5071964;28;20212;-58
2024/01/05 02:21:00;;;;;;;9.07;5.23;;;;;;;6.05;100.00;63562.41;5071892;28;20228;-60
2024/01/05 02:23:31;;;;;;;8.50;5.30;;;;;;;6.24;100.00;63587.56;5071114;28;20299;-60
2024/01/05 02:26:00;;;;;;;6.97;4.87;;;;;;;6.14;100.00;63574.69;5053832;28;20569;-53
2024/01/05 02:28:26;;;;;;;7.17;4.73;;;;;;;6.05;100.00;63564.34;5071846;28;20706;-53
2024/01/05 02:30:56;;;;;;;7.53;5.00;;;;;;;5.80;100.00;63538.19;5053643;28;20220;-53
2024/01/05 02:33:25;;;;;;;10.33;5.00;;;;;;;6.02;100.00;63564.13;5053543;28;20714;-58
2024/01/05 02:35:50;;;;;;;6.37;4.73;;;;;;;6.10;100.00;63570.34;5071637;28;20271;-54
2024/01/05 02:38:16;;;;;;;5.87;4.93;;;;;;;6.16;100.00;63576.34;5071578;28;20347;-54
2024/01/05 02:40:42;;;;;;;6.50;4.43;;;;;;;6.23;100.00;63584.50;5053578;28;20675;-55
2024/01/05 02:43:08;;;;;;;6.47;4.70;;;;;;;6.21;100.00;63584.84;5053591;28;20228;-54
2024/01/05 02:45:35;;;;;;;5.87;4.40;;;;;;;6.23;100.00;63583.97;5053591;28;20662;-55
2024/01/05 02:48:01;;;;;;;7.60;4.70;;;;;;;6.35;100.00;63597.03;5071364;28;20208;-55
2024/01/05 02:50:26;;;;;;;7.80;4.30;;;;;;;6.33;100.00;63592.34;5071490;28;20238;-55
2024/01/05 02:52:52;;;;;;;5.17;4.37;;;;;;;6.35;100.00;63597.03;5071592;28;20208;-55
2024/01/05 02:55:17;;;;;;;7.53;4.83;;;;;;;6.39;100.00;63599.44;5071537;28;20193;-53
2024/01/05 02:57:43;;;;;;;6.77;4.30;;;;;;;6.39;100.00;63604.44;5071305;28;20303;-55
2024/01/05 03:00:09;;;;;;;7.90;5.03;;;;;;;6.31;100.00;63592.69;5053450;28;20200;-53
2024/01/05 03:02:34;;;;;;;7.50;5.50;;;;;;;6.08;100.00;63567.63;5071586;28;20220;-53
2024/01/05 03:05:00;;;;;;;6.93;3.60;;;;;;;5.98;100.00;63554.75;5071294;28;20207;-55
2024/01/05 03:07:26;;;;;;;7.03;4.00;;;;;;;5.96;100.00;63552.59;5071319;28;20678;-56
2024/01/05 03:09:52;;;;;;;4.90;3.60;;;;;;;6.06;100.00;63565.44;5053128;28;20188;-56
2024/01/05 03:12:18;;;;;;;6.40;3.47;;;;;;;6.11;100.00;63571.44;5071256;28;20217;-53
2024/01/05 03:14:43;;;;;;;4.83;3.70;;;;;;;5.95;100.00;63554.00;5070941;28;20212;-52
2024/01/05 03:17:09;;;;;;;7.97;4.80;;;;;;;5.87;100.00;63545.28;5070970;28;20223;-52
2024/01/05 03:19:34;;;;;;;4.87;3.40;;;;;;;5.97;100.00;63556.19;5070922;28;20209;-54
2024/01/05 03:22:00;;;;;;;7.63;4.80;;;;;;;5.95;100.00;63554.00;5071008;28;20223;-54
2024/01/05 03:24:26;;;;;;;5.00;3.40;;;;;;;6.06;100.00;63565.97;5070952;28;20601;-53
2024/01/05 03:26:51;;;;;;;6.00;3.50;;;;;;;6.23;100.00;63584.50;5052804;28;20221;-53
2024/01/05 03:29:17;;;;;;;5.90;3.10;;;;;;;6.28;100.00;63589.44;5071060;28;20227;-54
2024/01/05 03:31:46;;;;;;;4.10;3.43;;;;;;;5.93;100.00;63549.31;5052966;28;20193;-55
2024/01/05 03:34:13;;;;;;;5.47;3.50;;;;;;;5.99;100.00;63557.81;5070697;28;20272;-53
2024/01/05 03:36:39;;;;;;;4.73;2.93;;;;;;;5.85;100.00;63543.13;5070525;28;20217;-54
2024/01/05 03:39:07;;;;;;;5.20;3.20;;;;;;;5.88;100.00;63546.38;5070782;28;20234;-54
2024/01/05 03:41:33;;;;;;;3.13;2.80;;;;;;;5.89;100.00;63547.47;5070848;28;20197;-54
2024/01/05 03:43:58;;;;;;;4.77;3.37;;;;;;;6.05;100.00;63564.91;5070722;28;20209;-54
2024/01/05 03:46:24;;;;;;;4.00;3.27;;;;;;;6.17;100.00;63579.94;5070504;28;20189;-53
2024/01/05 03:48:49;;;;;;;7.90;3.10;;;;;;;5.98;100.00;63554.75;5052779;28;20197;-55
2024/01/05 03:51:15;;;;;;;5.23;3.13;;;;;;;6.08;100.00;63568.16;5070687;28;20193;-54
2024/01/05 03:53:40;;;;;;;5.23;2.83;;;;;;;6.05;100.00;63564.34;5070421;28;20223;-54
2024/01/05 03:56:07;;;;;;;4.87;2.77;;;;;;;6.03;100.00;63560.22;5070627;28;20189;-58
2024/01/05 03:58:33;;;;;;;5.20;3.23;;;;;;;6.01;100.00;63560.53;5070316;28;20278;-57
2024/01/05 04:01:00;;;;;;;5.90;2.73;;;;;;;5.86;100.00;63547.25;5070402;28;20601;-56
2024/01/05 04:03:26;;;;;;;5.37;2.87;;;;;;;5.91;100.00;63547.16;5070249;28;20706;-59
2024/01/05 04:05:51;;;;;;;4.20;3.20;;;;;;;5.97;100.00;63555.63;5070371;28;20284;-52
2024/01/05 04:08:17;;;;;;;3.67;2.83;;;;;;;6.02;100.00;63561.63;5070267;28;20655;-55
2024/01/05 04:10:43;;;;;;;4.20;2.60;;;;;;;5.79;100.00;63534.06;5070174;28;20204;-53
2024/01/05 04:13:08;;;;;;;5.23;3.27;;;;;;;5.99;100.00;63558.38;5052256;28;20605;-54
2024/01/05 04:15:38;;;;;;;5.20;3.07;;;;;;;5.87;100.00;63542.78;5070512;28;20654;-53
2024/01/05 04:18:05;;;;;;;4.77;3.23;;;;;;;5.91;100.00;63547.69;5070386;28;20250;-54
2024/01/05 04:20:31;;;;;;;8.67;3.77;;;;;;;6.09;100.00;63568.72;5052558;28;20212;-53
2024/01/05 04:22:57;;;;;;;7.23;3.23;;;;;;;6.06;100.00;63562.94;5052194;28;20220;-52
2024/01/05 04:25:23;;;;;;;3.40;3.10;;;;;;;5.96;100.00;63555.09;5052137;28;20658;-54
2024/01/05 04:27:48;;;;;;;7.07;3.00;;;;;;;5.92;100.00;63551.28;5070157;28;20219;-54
2024/01/05 04:30:15;;;;;;;4.00;2.83;;;;;;;5.92;100.00;63550.72;5070274;28;20254;-53
2024/01/05 04:32:43;;;;;;;7.57;3.30;;;;;;;5.94;100.00;63552.91;5069857;28;20295;-55
2024/01/05 04:35:08;;;;;;;5.87;3.50;;;;;;;5.96;100.00;63552.59;5069963;28;20189;-54
2024/01/05 04:37:34;;;;;;;6.60;3.57;;;;;;;5.79;100.00;63534.59;5070058;28;20225;-55
2024/01/05 04:39:59;;;;;;;4.63;3.47;;;;;;;5.69;100.00;63523.72;5069995;28;20185;-55
2024/01/05 04:42:26;;;;;;;6.60;3.47;;;;;;;5.82;100.00;63540.38;5070387;28;20248;-54
2024/01/05 04:44:52;;;;;;;6.83;3.60;;;;;;;5.77;100.00;63534.38;5070124;28;20185;-54
2024/01/05 04:47:18;;;;;;;7.47;3.70;;;;;;;5.78;100.00;63535.47;5070713;28;20578;-55
2024/01/05 04:49:44;;;;;;;5.93;3.33;;;;;;;5.96;100.00;63552.59;5073344;28;20184;-54
2024/01/05 04:52:10;;;;;;;5.27;3.33;;;;;;;5.88;100.00;63546.38;5073129;28;20223;-55
2024/01/05 04:54:36;;;;;;;4.83;3.60;;;;;;;5.94;100.00;63555.97;5073116;28;20189;-55
2024/01/05 04:57:02;;;;;;;5.03;3.40;;;;;;;5.87;100.00;63545.28;5073568;28;20220;-56
2024/01/05 04:59:27;;;;;;;5.00;3.33;;;;;;;5.89;100.00;63544.97;5073227;28;20244;-57
2024/01/05 05:01:53;;;;;;;7.20;3.63;;;;;;;5.84;100.00;63539.53;5073407;28;20240;-55
2024/01/05 05:04:18;;;;;;;8.63;3.93;;;;;;;5.85;100.00;63540.63;5073352;28;20207;-54
2024/01/05 05:06:44;;;;;;;5.47;3.57;;;;;;;5.89;100.00;63547.47;5073208;28;20232;-54
2024/01/05 05:09:10;;;;;;;5.60;4.07;;;;;;;5.97;100.00;63556.19;5073001;28;20616;-54
2024/01/05 05:11:39;;;;;;;5.20;3.10;;;;;;;5.82;100.00;63537.88;5072793;28;20566;-56
2024/01/05 05:14:05;;;;;;;8.10;3.90;;;;;;;5.97;100.00;63553.13;5072787;28;20751;-54
2024/01/05 05:16:30;;;;;;;4.50;3.40;;;;;;;6.02;100.00;63561.09;5072780;28;20216;-55
2024/01/05 05:18:56;;;;;;;7.40;2.93;;;;;;;5.86;100.00;63542.25;5072762;28;20195;-55
2024/01/05 05:21:22;;;;;;;4.63;3.80;;;;;;;5.83;100.00;63538.41;5072997;28;20270;-54
2024/01/05 05:23:48;;;;;;;8.60;3.80;;;;;;;5.72;100.00;63528.94;5072685;28;20204;-54
2024/01/05 05:26:13;;;;;;;6.30;4.43;;;;;;;5.73;100.00;63530.03;5054805;28;20727;-55
2024/01/05 05:28:39;;;;;;;6.93;4.10;;;;;;;5.85;100.00;63540.63;5072666;28;20580;-55
2024/01/05 05:31:05;;;;;;;4.83;3.80;;;;;;;5.74;100.00;63528.59;5072918;28;20193;-54
2024/01/05 05:33:30;;;;;;;6.13;3.97;;;;;;;5.75;100.00;63529.69;5054698;28;20219;-54
2024/01/05 05:35:56;;;;;;;5.60;3.30;;;;;;;5.69;100.00;63526.22;5072495;28;20196;-56
2024/01/05 05:38:21;;;;;;;7.20;4.37;;;;;;;5.53;100.00;63505.75;5072352;28;20714;-55
2024/01/05 05:40:47;;;;;;;8.17;4.60;;;;;;;5.48;100.00;63502.78;5054503;28;20647;-57
2024/01/05 05:43:12;;;;;;;6.97;4.00;;;;;;;5.43;100.00;63497.34;5072550;28;20215;-55
2024/01/05 05:45:38;;;;;;;8.90;5.10;;;;;;;5.49;100.00;63503.88;5072693;28;20727;-54
2024/01/05 05:48:05;;;;;;;8.73;4.40;;;;;;;5.90;100.00;63548.56;5072584;28;20213;-54
2024/01/05 05:50:31;;;;;;;5.23;3.93;;;;;;;5.86;100.00;63542.25;5072354;28;20674;-55
2024/01/05 05:52:56;;;;;;;6.47;4.57;;;;;;;5.97;100.00;63553.13;5072371;28;20211;-53
2024/01/05 05:55:22;;;;;;;10.07;4.20;;;;;;;5.80;100.00;63538.19;5072299;28;20204;-56
2024/01/05 05:57:47;;;;;;;6.37;4.23;;;;;;;5.69;100.00;63526.22;5072026;28;20216;-55
2024/01/05 06:00:13;;;;;;;5.87;4.53;;;;;;;5.87;100.00;63543.34;5053349;28;20231;-58
2024/01/05 06:02:39;;;;;;;9.40;4.67;;;;;;;5.80;100.00;63537.63;5071941;28;20212;-54
2024/01/05 06:05:05;;;;;;;10.07;4.20;;;;;;;5.82;100.00;63540.38;5072133;28;20181;-56
2024/01/05 06:07:31;;;;;;;7.77;3.73;;;;;;;5.74;100.00;63531.09;5053890;28;20220;-55
2024/01/05 06:09:58;;;;;;;8.80;4.33;;;;;;;5.70;100.00;63526.75;5071913;28;20184;-54
2024/01/05 06:12:24;;;;;;;7.50;3.23;;;;;;;5.61;100.00;63517.50;5072112;28;20899;-59
2024/01/05 06:14:49;;;;;;;13.43;4.03;;;;;;;5.57;100.00;63515.66;5071889;28;20188;-56
2024/01/05 06:17:15;;;;;;;8.43;4.20;;;;;;;5.51;100.00;63508.56;5053718;28;20239;-55
2024/01/05 06:19:40;;;;;;;9.93;4.60;;;;;;;6.92;100.00;63658.63;5071920;28;20748;-56
2024/01/05 06:22:06;;;;;;;8.03;4.60;;;;;;;7.04;100.00;63669.22;5071812;28;20217;-60
2024/01/05 06:24:32;;;;;;;8.03;3.83;;;;;;;6.83;100.00;63649.38;5037154;28;20659;-60
2024/01/05 06:26:57;;;;;;;8.30;4.10;;;;;;;8.11;100.00;63785.97;5071931;28;20220;-57
2024/01/05 06:29:22;;;;;;;7.17;3.67;;;;;;;8.02;100.00;63773.09;5071736;28;20197;-57
2024/01/05 06:31:48;;;;;;;6.43;3.77;;;;;;;7.73;100.00;63747.00;5054032;28;20374;-59
2024/01/05 06:34:14;;;;;;;7.50;3.83;;;;;;;7.43;100.00;63714.81;5071469;28;20219;-58
2024/01/05 06:36:39;;;;;;;5.97;4.10;;;;;;;7.03;100.00;63668.13;5071704;28;20279;-57
2024/01/05 06:39:05;;;;;;;7.80;3.83;;;;;;;6.93;100.00;63660.28;5070370;28;20283;-58
2024/01/05 06:41:31;;;;;;;5.90;3.53;;;;;;;6.81;100.00;63646.66;5069206;28;20632;-58
2024/01/05 06:43:56;;;;;;;5.60;4.03;;;;;;;6.72;100.00;63634.88;5071593;28;20195;-57
2024/01/05 06:46:23;;;;;;;5.77;3.47;;;;;;;6.54;100.00;63617.75;5071325;28;20549;-59
2024/01/05 06:48:49;;;;;;;7.43;4.03;;;;;;;6.63;100.00;63628.09;5071492;28;20235;-60
2024/01/05 06:51:15;;;;;;;9.30;3.10;;;;;;;6.48;100.00;63611.78;5071693;28;20668;-64
2024/01/05 06:53:40;;;;;;;4.53;3.43;;;;;;;6.66;100.00;63628.88;5071419;28;20220;-61
2024/01/05 06:56:06;;;;;;;4.67;2.97;;;;;;;6.58;100.00;63622.66;5071480;28;20647;-58
2024/01/05 06:58:34;;;;;;;7.87;3.50;;;;;;;6.36;100.00;63596.16;5071160;28;20295;-57
2024/01/05 07:01:01;;;;;;;5.13;2.70;;;;;;;6.46;100.00;63609.59;5071231;28;20199;-63
2024/01/05 07:03:26;;;;;;;7.10;3.60;;;;;;;6.53;100.00;63614.72;5053315;28;20238;-58
2024/01/05 07:05:52;;;;;;;6.50;3.40;;;;;;;6.51;100.00;63614.47;5071133;28;20726;-57
2024/01/05 07:08:17;;;;;;;6.20;3.20;;;;;;;6.44;100.00;63607.41;5070993;28;20726;-61
2024/01/05 07:10:43;;;;;;;8.77;4.20;;;;;;;6.26;100.00;63587.25;5070766;28;20559;-61
2024/01/05 07:13:09;;;;;;;17.70;5.67;;;;;;;6.16;100.00;63573.84;5071012;28;20209;-59
2024/01/05 07:15:35;;;;;;;11.83;5.97;;;;;;;6.39;100.00;63601.41;5070623;28;20208;-59
2024/01/05 07:18:01;;;;;;;7.53;4.17;;;;;;;6.36;100.00;63598.66;5051404;28;20224;-58
2024/01/05 07:20:27;;;;;;;7.67;4.40;;;;;;;6.64;100.00;63629.22;5052832;28;20188;-57
2024/01/05 07:22:52;;;;;;;11.73;5.17;;;;;;;6.60;100.00;63624.84;5069774;28;20232;-57
2024/01/05 07:25:18;;;;;;;12.10;6.50;;;;;;;6.70;100.00;63633.25;5070928;28;20187;-62
2024/01/05 07:27:44;;;;;;;14.43;7.37;;;;;;;6.77;100.00;63637.81;5069302;28;20364;-57
2024/01/05 07:30:10;;;;;;;10.37;4.47;;;;;;;7.03;100.00;63668.66;5069684;28;20192;-59
2024/01/05 07:32:37;;;;;;;6.70;3.77;;;;;;;7.02;100.00;63669.53;5070745;28;20212;-59
2024/01/05 07:35:04;;;;;;;17.90;6.77;;;;;;;7.09;100.00;63677.72;5070745;28;20670;-58
2024/01/05 07:37:30;;;;;;;12.97;4.70;;;;;;;7.34;100.00;63704.44;5052716;28;20217;-59
2024/01/05 07:39:55;;;;;;;11.60;5.60;;;;;;;7.58;100.00;63731.19;5070707;28;20187;-60
2024/01/05 07:42:21;;;;;;;10.17;4.87;;;;;;;7.98;100.00;63773.75;5070875;28;20213;-57
2024/01/05 07:44:47;;;;;;;10.77;5.20;;;;;;;7.87;100.00;63761.75;5070651;28;20672;-59
2024/01/05 07:47:13;;;;;;;10.60;4.53;;;;;;;7.89;100.00;63766.97;5052820;28;20213;-59
2024/01/05 07:49:40;;;;;;;11.87;5.07;;;;;;;7.95;100.00;63770.47;5070812;28;20192;-59
2024/01/05 07:52:06;;;;;;;10.23;6.00;;;;;;;8.19;100.00;63796.69;5052432;28;20256;-59
2024/01/05 07:54:31;;;;;;;13.37;8.50;;;;;;;8.58;100.00;63836.78;5070858;28;20181;-60
2024/01/05 07:56:56;;;;;;;10.10;4.40;;;;;;;8.57;100.00;63837.66;5052594;28;20270;-60
2024/01/05 07:59:22;;;;;;;6.87;4.00;;;;;;;8.71;100.00;63853.50;5070656;28;20562;-59
2024/01/05 08:01:52;;;;;;;15.70;4.13;;;;;;;9.04;100.00;63887.03;5052639;28;20686;-63
2024/01/05 08:04:17;;;;;;;13.70;9.23;;;;;;;9.10;100.00;63893.06;5052553;28;20185;-59
2024/01/05 08:06:47;;;;;;;12.50;5.93;;;;;;;9.38;100.00;63925.63;5052810;28;20192;-59
2024/01/05 08:09:12;;;;;;;9.50;5.20;;;;;;;9.46;100.00;63929.88;5070263;28;20177;-58
2024/01/05 08:11:38;;;;;;;6.53;3.37;;;;;;;8.85;100.00;63868.22;5068942;28;20196;-58
2024/01/05 08:14:03;;;;;;;8.00;3.70;;;;;;;9.33;100.00;63920.72;5070344;28;20196;-58
2024/01/05 08:16:29;;;;;;;4.80;3.30;;;;;;;9.49;100.00;63935.13;5070030;28;20640;-59
2024/01/05 08:18:54;;;;;;;8.20;4.53;;;;;;;9.59;100.00;63946.06;5070248;28;20197;-58
2024/01/05 08:21:20;;;;;;;6.37;3.40;;;;;;;10.16;100.00;64010.41;5070472;28;20189;-58
2024/01/05 08:23:46;;;;;;;7.00;4.47;;;;;;;10.58;100.00;64051.88;5073352;28;20213;-60
2024/01/05 08:26:17;;;;;;;7.77;4.17;;;;;;;10.55;100.00;64051.13;5073863;28;20250;-62
2024/01/05 08:28:42;;;;;;;9.33;4.57;;;;;;;10.82;99.69;64080.69;5073542;28;20721;-59
2024/01/05 08:31:08;;;;;;;10.30;4.20;;;;;;;11.28;100.00;64129.94;5073574;28;20197;-57
2024/01/05 08:33:33;;;;;;;13.10;4.07;;;;;;;10.95;97.58;64094.34;5073517;28;20216;-57
2024/01/05 08:35:59;;;;;;;8.10;4.97;;;;;;;11.13;95.50;64114.06;5073616;28;20185;-57
2024/01/05 08:38:25;;;;;;;4.27;3.10;;;;;;;11.19;90.67;64120.09;5073287;28;20208;-58
2024/01/05 08:40:52;;;;;;;7.03;4.23;;;;;;;11.35;92.13;64138.16;5073474;28;20188;-58
2024/01/05 08:43:18;;;;;;;8.07;5.43;;;;;;;10.68;98.37;64067.31;5073614;28;20278;-58
2024/01/05 08:45:46;;;;;;;9.03;4.70;;;;;;;10.40;98.04;64031.63;5073460;28;20622;-58
2024/01/05 08:48:11;;;;;;;9.00;3.80;;;;;;;10.59;98.41;64054.94;5073126;28;20686;-57
2024/01/05 08:50:37;;;;;;;13.30;5.90;;;;;;;11.12;94.85;64112.44;5055229;28;20188;-61
2024/01/05 08:53:03;;;;;;;14.73;7.23;;;;;;;11.67;90.83;64173.25;5073369;28;20217;-59
2024/01/05 08:55:29;;;;;;;11.10;6.47;;;;;;;11.51;97.57;64153.16;5055561;28;20223;-59
2024/01/05 08:58:02;;;;;;;8.97;5.77;;;;;;;12.14;99.31;64223.66;5073173;28;20307;-59
2024/01/05 09:00:28;;;;;;;9.10;5.93;;;;;;;12.55;91.48;64266.09;5062922;22;20241;-60
2024/01/05 09:02:55;;;;;;;9.87;5.83;;;;;;;13.05;93.51;64320.44;5060733;28;20271;-57
2024/01/05 09:05:20;;;;;;;11.30;6.10;;;;;;;13.32;86.66;64353.13;5053025;28;20196;-58
2024/01/05 09:07:47;;;;;;;11.63;5.97;;;;;;;13.77;88.75;64403.97;5053280;28;20205;-58
2024/01/05 09:10:13;;;;;;;11.38;6.07;;;;;;;14.08;85.09;64438.00;5053296;28;20220;-57
2024/01/05 09:12:38;;;;;;;15.50;7.30;;;;;;;14.32;83.37;64459.88;5053103;28;20209;-58
2024/01/05 09:15:10;;;;;;;17.50;11.03;;;;;;;14.75;82.01;64506.56;5053197;28;20193;-58
2024/01/05 09:17:36;;;;;;;29.00;14.25;;;;;;;14.91;80.55;64524.16;5052850;28;20229;-63
2024/01/05 09:20:03;;;;;;;26.33;14.82;;;;;;;15.17;80.90;64551.66;5053091;28;20639;-60
2024/01/05 09:22:28;;;;;;;23.90;14.67;;;;;;;15.38;78.49;64575.28;5052756;28;20251;-58
2024/01/05 09:24:54;;;;;;;24.17;13.20;;;;;;;15.66;77.51;64605.53;5052893;28;20185;-58
2024/01/05 09:27:19;;;;;;;26.23;14.52;;;;;;;15.87;76.56;64631.19;5052602;28;20622;-57
2024/01/05 09:29:45;;;;;;;26.23;17.20;;;;;;;15.78;75.52;64616.22;5052783;28;20182;-58
2024/01/05 09:32:10;;;;;;;29.50;18.33;;;;;;;15.61;74.89;64600.06;5052611;28;20213;-57
2024/01/05 09:34:36;;;;;;;26.15;18.23;;;;;;;15.85;77.38;64627.00;5052838;28;20190;-57
2024/01/05 09:37:02;;;;;;;32.03;18.92;;;;;;;15.71;74.03;64613.59;5052387;28;20613;-57
2024/01/05 09:39:28;;;;;;;29.33;19.10;;;;;;;15.71;77.03;64611.63;5052803;28;20197;-57
2024/01/05 09:41:53;;;;;;;33.22;18.08;;;;;;;15.95;77.03;64637.47;5034514;28;20308;-57
2024/01/05 09:44:22;;;;;;;24.15;17.45;;;;;;;16.09;74.20;64652.31;5052451;28;20189;-58
2024/01/05 09:46:49;;;;;;;25.35;17.48;;;;;;;16.28;69.56;64673.22;5034846;28;20209;-57
2024/01/05 09:49:16;;;;;;;22.63;14.90;;;;;;;16.08;69.05;64653.75;5051079;28;20281;-56
2024/01/05 09:51:44;;;;;;;20.75;12.75;;;;;;;16.06;69.98;64652.09;5052358;28;20246;-57
2024/01/05 09:54:11;;;;;;;15.32;10.40;;;;;;;16.04;69.90;64644.81;5052678;28;20198;-56
2024/01/05 09:56:39;;;;;;;15.45;9.23;;;;;;;15.85;70.58;64626.47;5052069;28;20207;-56
2024/01/05 09:59:06;;;;;;;15.00;7.57;;;;;;;16.18;65.26;64662.75;5052463;28;20276;-57
2024/01/05 10:01:34;;;;;;;10.05;5.32;;;;;;;16.16;64.16;64662.56;5050840;28;20193;-57
2024/01/05 10:04:01;;;;;;;9.77;4.80;;;;;;;15.83;64.06;64627.34;5052104;28;20645;-56
2024/01/05 10:06:29;;;;;;;13.10;6.68;;;;;;;15.49;62.64;64586.84;5051987;28;20181;-56
2024/01/05 10:08:58;;;;;;;14.82;8.35;;;;;;;15.47;67.24;64587.75;5050826;28;20284;-56
2024/01/05 10:11:31;;;;;;;15.00;8.80;;;;;;;15.62;65.55;64601.69;5052242;28;20190;-60
2024/01/05 10:14:00;;;;;;;13.45;8.25;;;;;;;15.63;65.91;64599.72;5051947;28;20201;-61
2024/01/05 10:16:33;;;;;;;16.95;8.65;;;;;;;15.59;64.19;64595.31;5051946;28;20185;-57
2024/01/05 10:19:13;;;;;;;12.95;8.45;;;;;;;15.70;66.34;64609.94;5052117;28;20193;-56
2024/01/05 10:21:40;;;;;;;12.88;8.75;;;;;;;15.74;67.59;64614.91;5051820;28;20242;-57
2024/01/05 10:24:24;;;;;;;15.88;8.73;;;;;;;15.92;65.86;64637.25;5052178;28;20673;-56
2024/01/05 10:27:04;;;;;;;18.30;8.60;;;;;;;16.36;66.25;64682.03;5051422;28;20216;-55
2024/01/05 10:29:30;;;;;;;17.42;8.73;;;;;;;16.58;63.52;64709.34;5033900;28;20194;-55
2024/01/05 10:32:19;;;;;;;15.32;8.32;;;;;;;16.81;61.54;64731.59;5051842;28;20209;-56
2024/01/05 10:34:49;;;;;;;16.70;8.35;;;;;;;16.85;60.15;64735.47;5051734;28;20181;-65
2024/01/05 10:37:17;;;;;;;18.00;8.68;;;;;;;16.88;61.06;64739.31;5051526;28;20239;-56
2024/01/05 10:40:03;;;;;;;10.35;5.90;;;;;;;16.68;56.73;64717.81;5051586;28;20185;-56
2024/01/05 10:42:29;;;;;;;14.23;4.78;;;;;;;16.65;57.02;64717.06;5051255;28;20221;-56
2024/01/05 10:44:57;;;;;;;10.98;5.10;;;;;;;16.51;57.92;64698.56;5051388;28;20263;-56
2024/01/05 10:47:25;;;;;;;8.35;5.10;;;;;;;16.68;56.89;64720.38;5051462;28;20218;-56
2024/01/05 10:49:53;;;;;;;9.35;5.05;;;;;;;16.78;56.09;64726.31;5050331;28;20213;-56
2024/01/05 10:52:22;;;;;;;11.50;5.47;;;;;;;16.54;56.38;64702.41;5051374;28;20271;-55
2024/01/05 10:54:50;;;;;;;11.98;5.57;;;;;;;16.51;56.91;64698.56;5050154;28;20190;-58
2024/01/05 10:57:18;;;;;;;11.20;6.15;;;;;;;16.87;55.96;64735.66;5048837;28;20213;-56
2024/01/05 10:59:54;;;;;;;12.98;5.07;;;;;;;16.54;54.10;64702.41;5049267;28;20264;-56
2024/01/05 11:02:40;;;;;;;7.35;4.15;;;;;;;16.51;55.54;64699.13;5033035;28;20309;-56
2024/01/05 11:05:12;;;;;;;10.73;4.65;;;;;;;16.62;56.89;64711.22;5051353;28;20221;-56
2024/01/05 11:07:40;;;;;;;13.13;5.10;;;;;;;16.71;55.23;64723.13;5033172;28;20233;-55
2024/01/05 11:10:29;;;;;;;14.10;5.97;;;;;;;16.48;54.37;64695.25;5051448;28;20193;-56
2024/01/05 11:13:05;;;;;;;7.22;4.00;;;;;;;15.71;55.38;64614.16;5050409;28;20342;-57
2024/01/05 11:15:48;;;;;;;11.13;4.63;;;;;;;15.66;57.58;64608.09;5049405;28;20272;-57
2024/01/05 11:18:33;;;;;;;8.48;4.10;;;;;;;15.50;57.10;64590.50;5049435;28;20593;-58
2024/01/05 11:21:19;;;;;;;10.18;4.13;;;;;;;15.69;57.89;64611.41;5031716;28;20689;-56
2024/01/05 11:23:47;;;;;;;8.90;4.82;;;;;;;15.70;57.07;64609.94;5051176;28;20213;-58
2024/01/05 11:26:32;;;;;;;7.28;4.45;;;;;;;15.42;54.74;64579.13;5050782;28;20190;-56
2024/01/05 11:28:58;;;;;;;5.78;2.83;;;;;;;14.99;58.53;64534.94;5051288;28;20284;-57
2024/01/05 11:31:46;;;;;;;5.32;3.33;;;;;;;14.78;60.91;64509.31;5050957;28;20634;-56